Time;durP1;ratioP1;P1;durP2;ratioP2;P2;SDS_P1;SDS_P2;PMS_P1;PMS_P2;Temp;Humidity;BMP_temperature;BMP_pressure;BME280_temperature;BME280_humidity;BME280_pressure;Samples;Min_cycle;Max_cycle;Signal;HPM_P1;HPM_P2
2023/08/19 00:06:54;;;;;;;4.45;3.85;;;;;;;29.53;50.04;100977.94;21081832;28;20040;-59
2023/08/19 00:16:58;;;;;;;4.32;3.92;;;;;;;29.52;49.91;100990.41;21081130;28;20055;-58
2023/08/19 00:27:01;;;;;;;4.40;3.63;;;;;;;29.46;49.89;101005.81;21080606;28;20479;-58
2023/08/19 00:37:03;;;;;;;4.53;3.72;;;;;;;29.51;49.70;101036.69;21079002;28;20094;-58
2023/08/19 00:47:04;;;;;;;4.35;3.95;;;;;;;29.48;49.63;101045.81;21078181;28;20044;-59
2023/08/19 00:57:06;;;;;;;4.80;4.30;;;;;;;29.47;49.81;101063.88;21077513;28;20399;-59
2023/08/19 01:07:31;;;;;;;4.95;4.45;;;;;;;29.41;49.58;101076.50;21077622;28;20036;-59
2023/08/19 01:17:35;;;;;;;4.80;4.30;;;;;;;29.41;49.53;101094.22;21076608;28;20036;-57
2023/08/19 01:27:37;;;;;;;4.80;4.30;;;;;;;29.47;49.89;101129.56;21076422;28;20191;-58
2023/08/19 01:37:41;;;;;;;5.07;4.57;;;;;;;29.46;49.65;101143.97;21054919;28;20109;-59
2023/08/19 01:47:42;;;;;;;5.07;4.57;;;;;;;29.46;49.39;101158.06;21009291;28;20438;-58
2023/08/19 01:57:44;;;;;;;5.57;5.00;;;;;;;29.48;49.33;101178.31;21007943;28;20479;-57
2023/08/19 02:07:45;;;;;;;4.90;4.47;;;;;;;29.47;49.39;101179.47;21007213;28;20066;-59
2023/08/19 02:17:46;;;;;;;5.82;5.20;;;;;;;29.47;49.26;101193.56;21007307;28;20413;-58
2023/08/19 02:27:49;;;;;;;6.75;5.20;;;;;;;29.45;49.22;101204.34;21005677;28;20074;-59
2023/08/19 02:37:53;;;;;;;5.65;5.00;;;;;;;29.40;49.03;101205.34;21005104;28;20377;-58
2023/08/19 02:47:54;;;;;;;5.75;5.10;;;;;;;29.47;49.21;101221.78;21002536;28;20044;-59
2023/08/19 02:57:55;;;;;;;6.22;5.30;;;;;;;29.45;49.10;101232.53;21003463;28;20067;-58
2023/08/19 03:07:58;;;;;;;6.15;5.47;;;;;;;29.48;49.10;101237.50;21003149;28;20036;-59
2023/08/19 03:17:59;;;;;;;5.95;5.25;;;;;;;29.46;48.88;101245.47;21001848;28;20044;-58
2023/08/19 03:28:01;;;;;;;6.43;5.72;;;;;;;29.43;49.24;101254.59;21001242;28;20043;-58
2023/08/19 03:38:03;;;;;;;6.25;5.25;;;;;;;29.42;48.68;101269.88;21003271;28;20028;-59
2023/08/19 03:48:04;;;;;;;6.90;6.18;;;;;;;29.45;48.92;101272.00;21000097;28;20078;-58
2023/08/19 03:58:08;;;;;;;7.22;5.68;;;;;;;29.42;48.83;101269.88;20998780;28;20053;-58
2023/08/19 04:08:10;;;;;;;7.15;5.75;;;;;;;29.38;48.99;101287.44;20997985;28;20021;-60
2023/08/19 04:18:11;;;;;;;8.40;6.38;;;;;;;29.42;48.66;101289.59;20997292;28;20428;-58
2023/08/19 04:28:15;;;;;;;7.18;6.43;;;;;;;29.04;48.82;101236.66;20996264;28;20066;-58
2023/08/19 04:38:16;;;;;;;6.85;6.10;;;;;;;29.38;48.71;101303.53;20995613;28;20044;-58
2023/08/19 04:48:17;;;;;;;6.00;5.40;;;;;;;29.36;48.73;101295.38;20994230;28;20036;-58
2023/08/19 04:58:19;;;;;;;7.13;6.05;;;;;;;29.37;48.55;101311.16;20994258;28;20472;-59
2023/08/19 05:08:20;;;;;;;6.97;6.28;;;;;;;29.37;48.69;101319.63;20993627;28;20036;-58
2023/08/19 05:18:22;;;;;;;7.90;7.00;;;;;;;29.37;48.61;101325.25;20993015;28;20093;-59
2023/08/19 05:28:23;;;;;;;7.22;6.00;;;;;;;29.35;48.51;101323.91;20992928;28;20545;-60
2023/08/19 05:38:24;;;;;;;7.50;6.70;;;;;;;29.18;48.52;101293.69;21009174;28;20105;-58
2023/08/19 05:48:26;;;;;;;8.93;7.65;;;;;;;29.34;48.47;101320.25;21076092;28;20048;-59
2023/08/19 05:58:27;;;;;;;7.45;6.60;;;;;;;29.37;48.10;101315.97;21075630;28;20047;-58
2023/08/19 06:08:29;;;;;;;9.35;8.27;;;;;;;29.32;48.17;101316.09;21074931;28;20376;-59
2023/08/19 06:18:33;;;;;;;8.55;7.28;;;;;;;29.29;48.29;101328.88;21074456;28;20094;-58
2023/08/19 06:28:35;;;;;;;9.10;7.25;;;;;;;29.27;48.33;101325.53;21086881;28;20066;-58
2023/08/19 06:38:44;;;;;;;7.28;6.57;;;;;;;29.29;48.14;101323.25;21089248;28;20495;-58
2023/08/19 06:48:46;;;;;;;7.97;7.18;;;;;;;29.22;48.09;101303.16;21088212;28;20036;-59
2023/08/19 06:59:02;;;;;;;8.98;8.00;;;;;;;29.23;48.29;101318.06;21086408;28;20449;-57
2023/08/19 07:09:07;;;;;;;;;;;;;;;29.23;48.21;101349.06;21087107;28;20057;-58
2023/08/19 07:19:13;;;;;;;10.35;7.97;;;;;;;29.30;47.83;101350.25;21085718;28;19912;-58
2023/08/19 07:29:15;;;;;;;10.17;8.63;;;;;;;29.24;47.73;101360.03;21084869;28;20036;-58
2023/08/19 07:39:16;;;;;;;10.13;8.57;;;;;;;29.21;48.04;101365.50;21064258;28;20450;-57
2023/08/19 07:49:18;;;;;;;10.02;7.90;;;;;;;29.18;47.93;101366.97;20999636;28;20036;-59
2023/08/19 07:59:19;;;;;;;9.95;8.40;;;;;;;29.20;47.68;101378.75;20999134;28;20095;-58
2023/08/19 08:09:20;;;;;;;9.02;8.13;;;;;;;29.16;47.79;101394.66;20998400;28;20072;-57
2023/08/19 08:19:28;;;;;;;9.75;8.35;;;;;;;29.16;47.81;101391.03;20998565;28;20105;-57
2023/08/19 08:29:29;;;;;;;9.50;8.50;;;;;;;29.11;47.92;101390.00;20997714;28;20088;-57
2023/08/19 08:39:31;;;;;;;10.70;9.07;;;;;;;29.15;47.90;101389.38;20995996;28;20488;-59
2023/08/19 08:49:33;;;;;;;9.75;8.18;;;;;;;29.10;47.85;101393.16;20995028;28;20066;-58
2023/08/19 08:59:35;;;;;;;9.15;8.25;;;;;;;29.08;47.71;101381.38;20994342;28;20056;-58
2023/08/19 09:09:42;;;;;;;9.45;8.13;;;;;;;29.07;47.71;101393.81;20975892;28;20040;-59
2023/08/19 09:19:44;;;;;;;10.30;8.55;;;;;;;29.06;47.64;101409.88;20993452;28;20047;-58
2023/08/19 09:29:52;;;;;;;9.57;8.13;;;;;;;29.02;48.00;101403.22;20992969;28;20029;-59
2023/08/19 09:39:53;;;;;;;10.02;8.40;;;;;;;29.04;47.74;101400.09;20996422;28;20488;-59
2023/08/19 09:49:57;;;;;;;9.40;8.13;;;;;;;29.00;47.63;101415.97;20992288;28;20044;-58
2023/08/19 09:59:59;;;;;;;10.18;8.43;;;;;;;28.99;47.76;101428.41;20999754;28;20037;-59
2023/08/19 10:10:03;;;;;;;10.15;8.07;;;;;;;28.99;47.64;101440.50;21008173;28;20040;-59
2023/08/19 10:20:10;;;;;;;9.30;8.15;;;;;;;28.98;47.68;101458.56;21006792;28;20094;-58
2023/08/19 10:30:23;;;;;;;10.18;8.75;;;;;;;28.93;47.66;101460.66;21006685;28;20430;-58
2023/08/19 10:40:25;;;;;;;11.68;8.90;;;;;;;28.96;47.74;101468.50;21005261;28;20487;-58
2023/08/19 10:50:26;;;;;;;9.52;8.00;;;;;;;28.95;47.56;101486.50;21004506;28;20052;-58
2023/08/19 11:00:34;;;;;;;9.85;8.45;;;;;;;28.91;47.55;101491.13;21003625;28;20090;-58
2023/08/19 11:10:35;;;;;;;9.30;8.32;;;;;;;28.88;47.44;101499.09;21002218;28;20117;-57
2023/08/19 11:20:43;;;;;;;9.35;8.45;;;;;;;28.89;47.46;101508.38;21002158;28;20036;-58
2023/08/19 11:30:44;;;;;;;10.20;8.50;;;;;;;28.88;47.37;101530.06;21001258;28;20099;-58
2023/08/19 11:40:45;;;;;;;10.13;8.75;;;;;;;28.86;47.58;101545.63;21003524;28;20102;-58
2023/08/19 11:50:51;;;;;;;8.93;7.70;;;;;;;28.84;47.49;101559.22;20999708;28;20450;-58
2023/08/19 12:00:55;;;;;;;9.45;7.60;;;;;;;28.82;47.17;101559.53;20998966;28;20041;-58
2023/08/19 12:11:00;;;;;;;9.18;7.68;;;;;;;28.71;47.46;101549.66;20997923;28;20028;-59
2023/08/19 12:21:03;;;;;;;9.60;8.35;;;;;;;28.83;47.29;101563.19;20997078;28;20101;-55
2023/08/19 12:31:07;;;;;;;8.82;7.93;;;;;;;28.77;47.36;101570.94;20995923;28;20033;-57
2023/08/19 12:41:09;;;;;;;9.05;8.07;;;;;;;28.78;47.39;101572.59;20995235;28;20036;-57
2023/08/19 12:51:10;;;;;;;9.05;7.63;;;;;;;28.69;47.20;101571.69;20994139;28;20037;-58
2023/08/19 13:01:11;;;;;;;8.82;7.72;;;;;;;28.63;47.11;101575.75;20994116;28;20450;-58
2023/08/19 13:11:13;;;;;;;9.00;7.57;;;;;;;28.74;47.09;101588.47;20993617;28;20040;-59
2023/08/19 13:21:14;;;;;;;9.30;7.40;;;;;;;28.75;47.35;101598.56;20993875;28;20121;-58
2023/08/19 13:31:17;;;;;;;8.63;6.90;;;;;;;28.75;47.20;101601.38;20992238;28;20044;-58
2023/08/19 13:41:21;;;;;;;8.55;7.53;;;;;;;28.74;47.14;101601.72;20994794;28;20040;-56
2023/08/19 13:51:23;;;;;;;8.18;6.75;;;;;;;28.73;47.05;101605.69;20990760;28;20033;-58
2023/08/19 14:01:27;;;;;;;9.57;7.78;;;;;;;28.73;46.94;101631.88;20990772;28;20049;-59
2023/08/19 14:11:28;;;;;;;8.43;6.95;;;;;;;28.73;47.07;101631.88;20990662;28;20078;-59
2023/08/19 14:21:31;;;;;;;8.15;6.38;;;;;;;28.69;47.28;101613.09;20990471;28;20071;-58
2023/08/19 14:31:33;;;;;;;8.63;7.32;;;;;;;28.72;46.91;101626.53;20990140;28;20488;-58
2023/08/19 14:41:34;;;;;;;8.60;7.28;;;;;;;28.73;47.09;101637.50;20989799;28;20545;-57
2023/08/19 14:51:36;;;;;;;7.78;6.82;;;;;;;28.69;47.19;101635.63;21004261;28;20105;-56
2023/08/19 15:01:37;;;;;;;7.65;6.40;;;;;;;28.72;46.98;101649.06;21003412;28;20032;-58
2023/08/19 15:11:41;;;;;;;9.10;6.93;;;;;;;28.58;47.12;101618.13;21003224;28;20039;-58
2023/08/19 15:21:45;;;;;;;6.88;6.18;;;;;;;28.72;46.96;101629.34;21002629;28;20547;-57
2023/08/19 15:31:47;;;;;;;6.68;5.65;;;;;;;28.73;47.16;101614.97;21001406;28;20041;-58
2023/08/19 15:41:51;;;;;;;6.50;5.75;;;;;;;28.72;47.15;101606.81;21003619;28;20098;-57
2023/08/19 15:51:55;;;;;;;6.20;5.15;;;;;;;28.74;47.00;101607.34;20999557;28;20051;-58
2023/08/19 16:01:56;;;;;;;6.50;5.85;;;;;;;28.68;47.03;101589.72;20998395;28;20053;-58
2023/08/19 16:11:58;;;;;;;6.43;5.78;;;;;;;28.76;47.10;101594.59;20999116;28;20401;-57
2023/08/19 16:21:59;;;;;;;6.88;6.15;;;;;;;28.71;47.17;101575.00;20999909;28;20037;-56
2023/08/19 16:32:01;;;;;;;6.88;6.18;;;;;;;28.81;46.95;101583.19;20996526;28;20090;-56
2023/08/19 16:42:03;;;;;;;6.95;6.22;;;;;;;28.85;47.00;101583.41;20995873;28;20028;-57
2023/08/19 16:52:04;;;;;;;7.22;6.53;;;;;;;28.87;46.98;101570.69;20994666;28;20102;-57
2023/08/19 17:02:07;;;;;;;7.57;5.90;;;;;;;28.44;46.99;101504.72;20994885;28;20087;-56
2023/08/19 17:12:11;;;;;;;6.53;5.82;;;;;;;28.76;47.15;101552.34;20993169;28;20031;-58
2023/08/19 17:22:13;;;;;;;7.45;5.95;;;;;;;28.92;46.86;101571.69;20993477;28;20066;-56
2023/08/19 17:32:14;;;;;;;7.47;6.45;;;;;;;28.95;46.79;101576.66;20992599;28;20037;-59
2023/08/19 17:42:15;;;;;;;7.97;6.65;;;;;;;28.95;46.84;101559.78;20996480;28;20399;-57
2023/08/19 17:52:17;;;;;;;6.95;6.25;;;;;;;28.95;46.96;101565.41;20993199;28;20048;-57
2023/08/19 18:02:18;;;;;;;6.82;6.13;;;;;;;28.96;47.01;101551.03;20992106;28;20045;-57
2023/08/19 18:12:20;;;;;;;6.97;5.88;;;;;;;29.00;46.91;101545.56;20991996;28;20036;-58
2023/08/19 18:22:21;;;;;;;7.35;5.93;;;;;;;29.04;46.79;101532.50;21001296;28;20097;-58
2023/08/19 18:32:25;;;;;;;6.60;5.85;;;;;;;29.04;47.10;101526.88;21006951;28;20037;-58
2023/08/19 18:42:26;;;;;;;6.63;5.68;;;;;;;29.09;46.82;101507.88;21006186;28;20472;-57
2023/08/19 18:52:28;;;;;;;5.97;5.22;;;;;;;29.14;46.70;101518.16;21005749;28;20040;-59
2023/08/19 19:02:30;;;;;;;6.13;5.40;;;;;;;29.13;46.77;101502.41;21005090;28;20083;-57
2023/08/19 19:12:31;;;;;;;6.28;5.10;;;;;;;28.99;46.73;101465.03;21004437;28;20094;-57
2023/08/19 19:22:36;;;;;;;6.40;5.72;;;;;;;29.15;46.64;101494.47;21031375;28;20066;-57
2023/08/19 19:32:39;;;;;;;8.27;5.63;;;;;;;29.18;46.65;101485.34;21085012;28;20081;-59
2023/08/19 19:42:43;;;;;;;6.55;5.60;;;;;;;29.17;46.70;101478.03;21078875;28;20037;-57
2023/08/19 19:52:45;;;;;;;6.15;5.25;;;;;;;29.18;46.75;101490.16;21083275;28;20039;-55
2023/08/19 20:02:46;;;;;;;6.50;5.35;;;;;;;29.19;46.75;101472.94;21083895;28;20117;-56
2023/08/19 20:12:47;;;;;;;6.68;5.25;;;;;;;29.19;46.72;101464.47;21081667;28;20036;-56
2023/08/19 20:22:50;;;;;;;6.75;5.05;;;;;;;29.21;46.71;101461.31;21081435;28;20484;-58
2023/08/19 20:32:54;;;;;;;6.47;5.38;;;;;;;29.19;46.92;101441.94;21080428;28;20097;-58
2023/08/19 20:42:55;;;;;;;5.90;5.10;;;;;;;29.18;46.91;101448.69;21079193;28;20036;-55
2023/08/19 20:52:57;;;;;;;5.50;4.90;;;;;;;29.15;47.04;101440.91;21078626;28;20475;-58
2023/08/19 21:02:58;;;;;;;5.32;4.80;;;;;;;29.22;47.15;101451.69;21078477;28;20042;-57
2023/08/19 21:13:03;;;;;;;5.10;4.38;;;;;;;29.20;47.17;101451.22;21077720;28;20039;-57
2023/08/19 21:23:04;;;;;;;5.72;4.75;;;;;;;29.15;47.25;101449.38;21076759;28;20043;-57
2023/08/19 21:33:05;;;;;;;6.05;4.78;;;;;;;29.17;47.47;101447.03;21075726;28;20360;-57
2023/08/19 21:43:12;;;;;;;5.30;4.65;;;;;;;29.16;47.31;101442.56;21071464;28;20028;-58
2023/08/19 21:53:13;;;;;;;;;;;;;;;29.14;47.59;101442.09;21078566;28;20044;-57
2023/08/19 22:03:14;;;;;;;5.10;4.60;;;;;;;29.19;47.32;101447.56;21092703;28;19920;-58
2023/08/19 22:13:15;;;;;;;4.90;4.40;;;;;;;29.12;47.32;101447.19;21091531;28;20036;-58
2023/08/19 22:23:17;;;;;;;5.05;4.38;;;;;;;29.13;47.29;101460.94;21089881;28;20048;-58
2023/08/19 22:33:19;;;;;;;6.07;4.78;;;;;;;29.13;47.53;101460.13;21090166;28;20495;-56
2023/08/19 22:43:20;;;;;;;5.22;4.40;;;;;;;29.13;47.47;101477.03;21088344;28;20101;-56
2023/08/19 22:53:21;;;;;;;4.90;4.43;;;;;;;29.11;47.54;101479.34;21087504;28;20036;-58
2023/08/19 23:03:23;;;;;;;4.72;4.30;;;;;;;29.04;47.62;101484.59;21086818;28;20048;-57
2023/08/19 23:13:24;;;;;;;4.28;3.88;;;;;;;29.08;47.54;101492.09;21086791;28;20036;-56
2023/08/19 23:23:25;;;;;;;4.65;4.13;;;;;;;29.07;47.48;101498.06;21085330;28;20032;-58
2023/08/19 23:33:27;;;;;;;4.47;3.88;;;;;;;29.08;47.52;101502.53;21084873;28;20036;-55
2023/08/19 23:43:28;;;;;;;4.32;3.83;;;;;;;29.08;47.61;101509.00;21082392;28;20024;-55
2023/08/19 23:53:35;;;;;;;5.65;4.53;;;;;;;29.05;47.68;101520.09;21002140;28;20028;-57
